Time;durP1;ratioP1;P1;durP2;ratioP2;P2;SDS_P1;SDS_P2;PMS_P1;PMS_P2;Temp;Humidity;BMP_temperature;BMP_pressure;BME280_temperature;BME280_humidity;BME280_pressure;Samples;Min_cycle;Max_cycle;Signal;HPM_P1;HPM_P2
2023/03/09 00:04:36;;;;;;;;;;;0.60;99.90;;;;;;6226382;22;19907;-96
2023/03/09 00:18:25;;;;;;;;;;;1.20;99.90;;;;;;6215580;22;20086;-96
2023/03/09 00:20:50;;;;;;;;;;;1.60;99.90;;;;;;6181963;23;19921;-96
2023/03/09 00:23:19;;;;;;;;;;;0.40;99.90;;;;;;6207743;23;19955;-96
2023/03/09 00:25:48;;;;;;;;;;;1.40;99.90;;;;;;6183304;23;19947;-95
2023/03/09 00:28:16;;;;;;;;;;;2.80;99.90;;;;;;6184868;23;19931;-95
2023/03/09 00:30:45;;;;;;;;;;;2.40;99.90;;;;;;6184415;23;19960;-96
2023/03/09 00:46:13;;;;;;;;;;;1.10;99.90;;;;;;6209124;22;19972;-96
2023/03/09 00:48:42;;;;;;;;;;;0.80;99.90;;;;;;6157992;23;19920;-94
2023/03/09 00:56:25;;;;;;;;;;;1.10;99.90;;;;;;6211284;22;19914;-95
2023/03/09 00:58:54;;;;;;;;;;;1.50;99.90;;;;;;6161409;23;19944;-95
2023/03/09 01:01:21;;;;;;;;;;;1.60;99.90;;;;;;6157830;23;19971;-95
2023/03/09 01:03:51;;;;;;;;;;;-0.80;99.90;;;;;;6160337;23;19916;-95
2023/03/09 01:06:23;;;;;;;;;;;0.70;99.90;;;;;;6159695;23;19976;-94
2023/03/09 01:17:05;;;;;;;;;;;0.90;99.90;;;;;;6202393;22;19954;-95
2023/03/09 01:19:31;;;;;;;;;;;0.80;99.90;;;;;;6158461;23;19920;-95
2023/03/09 01:21:57;;;;;;;;;;;0.90;99.90;;;;;;6181502;23;19921;-95
2023/03/09 01:24:26;;;;;;;;;;;2.80;99.90;;;;;;6154707;23;19959;-95
2023/03/09 01:26:53;;;;;;;;;;;-0.80;99.90;;;;;;6180097;23;19939;-94
2023/03/09 01:29:18;;;;;;;;;;;3.30;99.90;;;;;;6181053;23;19908;-95
2023/03/09 01:31:44;;;;;;;;;;;1.40;99.90;;;;;;6183542;23;19930;-96
2023/03/09 01:34:17;;;;;;;;;;;5.40;99.90;;;;;;6162276;23;19937;-95
2023/03/09 01:36:46;;;;;;;;;;;-0.80;99.90;;;;;;6132749;23;19927;-95
2023/03/09 01:39:14;;;;;;;;;;;0.90;99.90;;;;;;6131052;23;19948;-95
2023/03/09 01:41:42;;;;;;;;;;;1.20;99.90;;;;;;6132155;23;19917;-96
2023/03/09 01:44:11;;;;;;;;;;;1.60;99.90;;;;;;6130656;23;19940;-94
2023/03/09 01:46:47;;;;;;;;;;;1.10;99.90;;;;;;6159471;23;19943;-96
2023/03/09 01:49:28;;;;;;;;;;;2.70;99.90;;;;;;6131789;23;19995;-96
2023/03/09 02:02:22;;;;;;;;;;;0.60;99.90;;;;;;6241633;22;19924;-95
2023/03/09 02:13:17;;;;;;;;;;;0.50;99.90;;;;;;6226614;22;19963;-95
2023/03/09 02:15:45;;;;;;;;;;;4.90;99.90;;;;;;6216064;23;19916;-96
2023/03/09 02:18:11;;;;;;;;;;;3.10;99.90;;;;;;6191718;23;19994;-96
2023/03/09 02:47:13;;;;;;;;;;;0.30;99.90;;;;;;6237367;22;19907;-96
2023/03/09 02:49:39;;;;;;;;;;;2.50;99.90;;;;;;6186539;23;20245;-96
2023/03/09 02:52:05;;;;;;;;;;;0.40;99.90;;;;;;6188706;23;19924;-96
2023/03/09 02:57:12;;;;;;;;;;;0.40;99.90;;;;;;6233239;22;19950;-95
2023/03/09 02:59:38;;;;;;;;;;;0.30;99.90;;;;;;6185299;23;19916;-96
2023/03/09 03:02:04;;;;;;;;;;;-1.00;99.90;;;;;;6214117;23;20399;-96
2023/03/09 03:04:34;;;;;;;;;;;0.90;99.90;;;;;;6213950;23;19920;-96
2023/03/09 03:07:03;;;;;;;;;;;1.70;99.90;;;;;;6188311;23;19918;-95
2023/03/09 03:09:28;;;;;;;;;;;0.50;99.90;;;;;;6212762;23;19967;-96
2023/03/09 03:11:54;;;;;;;;;;;4.60;99.90;;;;;;6185188;23;19948;-95
2023/03/09 03:14:22;;;;;;;;;;;-1.60;99.90;;;;;;6189442;23;19931;-95
2023/03/09 03:16:48;;;;;;;;;;;0.70;99.90;;;;;;6186735;23;19931;-96
2023/03/09 03:19:16;;;;;;;;;;;1.30;99.90;;;;;;6211319;23;19944;-96
2023/03/09 03:21:42;;;;;;;;;;;4.20;99.90;;;;;;6212888;23;19919;-95
2023/03/09 03:24:11;;;;;;;;;;;0.70;99.90;;;;;;6188712;23;19915;-95
2023/03/09 03:26:37;;;;;;;;;;;0.70;99.90;;;;;;6213139;23;20325;-95
2023/03/09 03:29:16;;;;;;;;;;;;;;;;;;;;;
2023/03/09 04:01:30;;;;;;;;;;;0.40;99.90;;;;;;6226140;22;19924;-95
2023/03/09 04:06:47;;;;;;;;;;;0.40;99.90;;;;;;6221679;23;19927;-96
2023/03/09 04:09:13;;;;;;;;;;;0.10;99.90;;;;;;6187963;23;19920;-96
2023/03/09 04:11:41;;;;;;;;;;;-0.80;99.90;;;;;;6188249;23;19923;-96
2023/03/09 04:32:18;;;;;;;;;;;0.30;99.90;;;;;;6173481;23;19921;-96
2023/03/09 04:34:44;;;;;;;;;;;0.40;99.90;;;;;;6150278;23;19931;-95
2023/03/09 04:37:13;;;;;;;;;;;2.80;99.90;;;;;;6150938;23;19921;-96
2023/03/09 04:39:42;;;;;;;;;;;1.60;99.90;;;;;;6150329;23;19951;-95
2023/03/09 04:42:08;;;;;;;;;;;0.30;99.90;;;;;;6149745;23;19921;-93
2023/03/09 04:44:34;;;;;;;;;;;1.40;99.90;;;;;;6147761;23;19951;-95
2023/03/09 04:47:00;;;;;;;;;;;0.20;99.90;;;;;;6153117;23;19940;-96
2023/03/09 04:49:26;;;;;;;;;;;-0.50;99.90;;;;;;6149233;23;19920;-94
2023/03/09 04:51:52;;;;;;;;;;;2.20;99.90;;;;;;6152306;23;19932;-95
2023/03/09 04:54:21;;;;;;;;;;;2.00;99.90;;;;;;6149625;23;19908;-95
2023/03/09 04:56:50;;;;;;;;;;;-0.70;99.90;;;;;;6152862;23;19921;-96
2023/03/09 04:59:16;;;;;;;;;;;0.20;99.90;;;;;;6127875;23;19921;-96
2023/03/09 05:01:42;;;;;;;;;;;-0.30;99.90;;;;;;6176019;23;19927;-95
2023/03/09 05:04:10;;;;;;;;;;;1.90;99.90;;;;;;6147860;23;19939;-96
2023/03/09 05:06:38;;;;;;;;;;;0.80;99.90;;;;;;6123135;23;19921;-95
2023/03/09 05:09:05;;;;;;;;;;;0.50;99.90;;;;;;6149273;23;19973;-96
2023/03/09 05:11:34;;;;;;;;;;;-1.20;99.90;;;;;;6152201;23;19932;-96
2023/03/09 05:13:59;;;;;;;;;;;0.20;99.90;;;;;;6153395;23;19981;-95
2023/03/09 05:19:01;;;;;;;;;;;0.20;99.90;;;;;;6205965;23;19934;-95
2023/03/09 05:29:13;;;;;;;;;;;0.30;99.90;;;;;;6203704;22;19924;-95
2023/03/09 05:31:38;;;;;;;;;;;2.00;99.90;;;;;;6188983;23;19938;-95
2023/03/09 05:34:04;;;;;;;;;;;2.80;99.90;;;;;;6188929;23;19930;-95
2023/03/09 05:36:31;;;;;;;;;;;3.50;99.90;;;;;;6187745;23;19995;-96
2023/03/09 05:38:57;;;;;;;;;;;-0.90;99.90;;;;;;6188839;23;19942;-95
2023/03/09 05:41:25;;;;;;;;;;;0.90;99.90;;;;;;6187107;23;19916;-95
2023/03/09 05:43:51;;;;;;;;;;;-0.50;99.90;;;;;;6190116;23;19920;-95
2023/03/09 05:46:23;;;;;;;;;;;-0.60;99.90;;;;;;6189536;23;19928;-95
2023/03/09 05:48:51;;;;;;;;;;;0.70;99.90;;;;;;6190009;23;19947;-95
2023/03/09 05:51:20;;;;;;;;;;;-0.70;99.90;;;;;;6163427;23;19935;-96
2023/03/09 05:53:48;;;;;;;;;;;0.60;99.90;;;;;;6188083;23;19964;-96
2023/03/09 05:56:14;;;;;;;;;;;1.40;99.90;;;;;;6192044;23;19940;-96
2023/03/09 05:58:44;;;;;;;;;;;3.50;99.90;;;;;;6217688;23;19916;-95
2023/03/09 06:01:21;;;;;;;;;;;1.40;99.90;;;;;;6216635;23;19930;-96
2023/03/09 06:03:48;;;;;;;;;;;-0.90;99.90;;;;;;6167855;23;19942;-96
2023/03/09 06:06:17;;;;;;;;;;;-0.90;99.90;;;;;;6191582;22;19947;-96
2023/03/09 06:27:59;;;;;;;;;;;-0.40;99.90;;;;;;6121563;23;19959;-94
2023/03/09 06:30:37;;;;;;;;;;;-1.10;99.90;;;;;;6140553;23;19920;-91
2023/03/09 06:33:11;;;;;;;;;;;3.20;99.90;;;;;;6161237;23;19928;-92
2023/03/09 06:36:00;;;;;;;;;;;-2.00;99.90;;;;;;6137553;23;19920;-92
2023/03/09 06:42:09;;;;;;;;;;;3.70;99.90;;;;;;6160112;23;19920;-92
2023/03/09 06:45:30;;;;;;;;;;;;;;;;;;;;;
2023/03/09 06:48:14;;;;;;;;;;;;;;;;;;;;;
2023/03/09 06:51:11;;;;;;;;;;;;;;;;;;;;;
2023/03/09 06:54:10;;;;;;;;;;;1.20;99.90;;;;;;6170552;23;19923;-93
2023/03/09 06:57:09;;;;;;;;;;;;;;;;;;;;;
2023/03/09 06:59:54;;;;;;;;;;;-0.10;99.90;;;;;;6180380;23;19924;-91
2023/03/09 07:02:30;;;;;;;;;;;2.70;99.90;;;;;;6137630;23;19948;-91
2023/03/09 07:05:00;;;;;;;;;;;2.40;99.90;;;;;;6161021;23;19908;-92
2023/03/09 07:08:17;;;;;;;;;;;-1.50;99.90;;;;;;6136421;23;19931;-92
2023/03/09 07:10:51;;;;;;;;;;;-1.80;99.90;;;;;;6151838;23;19908;-92
2023/03/09 07:13:40;;;;;;;;;;;;;;;;;;;;;
2023/03/09 07:16:19;;;;;;;;;;;;;;;;;;;;;
2023/03/09 07:19:24;;;;;;;;;;;0.90;99.90;;;;;;6138059;23;19926;-92
2023/03/09 07:22:24;;;;;;;;;;;;;;;;;;;;;
2023/03/09 07:25:21;;;;;;;;;;;1.10;99.90;;;;;;6136470;23;19920;-92
2023/03/09 07:28:31;;;;;;;;;;;;;;;;;;;;;
2023/03/09 07:31:40;;;;;;;;;;;-1.60;99.90;;;;;;6151471;23;20385;-92
2023/03/09 07:34:13;;;;;;;;;;;1.20;99.90;;;;;;6157042;23;19924;-93
2023/03/09 07:36:56;;;;;;;;;;;1.30;99.90;;;;;;6133070;23;20369;-90
2023/03/09 07:39:32;;;;;;;;;;;2.80;99.90;;;;;;6134256;23;20019;-92
2023/03/09 07:42:09;;;;;;;;;;;0.30;99.90;;;;;;6136206;23;20301;-91
2023/03/09 07:44:54;;;;;;;;;;;0.90;99.90;;;;;;6134464;23;20014;-92
2023/03/09 07:47:37;;;;;;;;;;;;;;;;;;;;;
2023/03/09 07:50:18;;;;;;;;;;;;;;;;;;;;;
2023/03/09 07:53:05;;;;;;;;;;;1.00;99.90;;;;;;6158215;23;19924;-92
2023/03/09 07:56:03;;;;;;;;;;;;;;;;;;;;;
2023/03/09 07:59:00;;;;;;;;;;;1.10;99.90;;;;;;6157926;23;20261;-91
2023/03/09 08:01:48;;;;;;;;;;;2.60;99.90;;;;;;6130892;23;19920;-92
2023/03/09 08:04:25;;;;;;;;;;;-0.60;99.90;;;;;;6112705;23;19924;-92
2023/03/09 08:07:19;;;;;;;;;;;2.60;99.90;;;;;;6133092;23;19975;-92
2023/03/09 08:10:23;;;;;;;;;;;1.20;99.90;;;;;;6160476;23;19976;-90
2023/03/09 08:13:02;;;;;;;;;;;-1.10;99.90;;;;;;6134910;23;19924;-93
2023/03/09 08:15:38;;;;;;;;;;;2.70;99.90;;;;;;6158281;23;19927;-92
2023/03/09 08:18:32;;;;;;;;;;;4.10;99.90;;;;;;6134038;23;20028;-92
2023/03/09 08:21:32;;;;;;;;;;;0.20;99.90;;;;;;6110171;23;19935;-91
2023/03/09 08:24:31;;;;;;;;;;;;;;;;;;;;;
2023/03/09 08:27:09;;;;;;;;;;;;;;;;;;;;;
2023/03/09 08:36:12;;;;;;;;;;;2.00;99.90;;;;;;6153175;23;19920;-92
2023/03/09 08:38:48;;;;;;;;;;;4.60;99.90;;;;;;6129845;23;19996;-91
2023/03/09 08:41:32;;;;;;;;;;;;;;;;;;;;;
2023/03/09 08:43:59;;;;;;;;;;;4.30;99.90;;;;;;6153574;23;20023;-94
2023/03/09 08:46:48;;;;;;;;;;;3.30;99.90;;;;;;6154617;23;19955;-93
2023/03/09 08:49:34;;;;;;;;;;;0.00;99.90;;;;;;6128376;23;19999;-93
2023/03/09 08:52:07;;;;;;;;;;;2.60;99.90;;;;;;6102819;23;19921;-89
2023/03/09 08:58:54;;;;;;;;;;;1.80;99.90;;;;;;6061355;23;20787;-93
2023/03/09 09:02:14;;;;;;;;;;;;;;;;;;;;;
2023/03/09 09:04:56;;;;;;;;;;;1.50;99.90;;;;;;6043124;23;19988;-91
2023/03/09 09:07:26;;;;;;;;;;;3.60;99.90;;;;;;6102963;23;19927;-92
2023/03/09 09:10:18;;;;;;;;;;;2.70;99.90;;;;;;6106197;23;20269;-91
2023/03/09 09:13:00;;;;;;;;;;;2.30;99.90;;;;;;6128164;23;19920;-92
2023/03/09 09:15:50;;;;;;;;;;;;;;;;;;;;;
2023/03/09 09:18:32;;;;;;;;;;;2.70;99.90;;;;;;6152973;23;20649;-90
2023/03/09 09:21:18;;;;;;;;;;;3.50;99.90;;;;;;6127680;23;20327;-91
2023/03/09 09:23:58;;;;;;;;;;;2.50;99.90;;;;;;6125229;23;19935;-90
2023/03/09 09:29:42;;;;;;;;;;;2.40;99.90;;;;;;6144223;23;19927;-91
2023/03/09 09:32:18;;;;;;;;;;;2.30;99.90;;;;;;6103807;23;20241;-90
2023/03/09 09:35:07;;;;;;;;;;;2.70;99.90;;;;;;6152544;23;19921;-92
2023/03/09 09:37:46;;;;;;;;;;;2.30;99.90;;;;;;6152288;23;19996;-91
2023/03/09 09:40:35;;;;;;;;;;;3.00;99.90;;;;;;6128734;23;19940;-92
2023/03/09 09:46:16;;;;;;;;;;;2.50;99.90;;;;;;6142225;23;19928;-91
2023/03/09 09:49:03;;;;;;;;;;;3.20;99.90;;;;;;6127906;23;19964;-92
2023/03/09 09:51:50;;;;;;;;;;;2.70;99.90;;;;;;6114278;23;19978;-91
2023/03/09 09:57:42;;;;;;;;;;;;;;;;;;;;;
2023/03/09 10:07:21;;;;;;;;;;;;;;;;;;;;;
2023/03/09 10:12:47;;;;;;;;;;;1.20;99.90;;;;;;6154709;23;19948;-91
2023/03/09 10:18:18;;;;;;;;;;;5.40;99.90;;;;;;6153665;23;19925;-91
2023/03/09 10:21:08;;;;;;;;;;;3.30;99.90;;;;;;6128242;23;19921;-90
2023/03/09 10:23:45;;;;;;;;;;;1.80;99.90;;;;;;6129662;23;19921;-90
2023/03/09 10:26:39;;;;;;;;;;;1.10;99.90;;;;;;6128425;23;19928;-90
2023/03/09 10:29:25;;;;;;;;;;;;;;;;;;;;;
2023/03/09 10:32:42;;;;;;;;;;;2.90;99.90;;;;;;6154050;23;19921;-90
2023/03/09 10:35:17;;;;;;;;;;;3.70;99.90;;;;;;6138999;23;19925;-90
2023/03/09 10:37:50;;;;;;;;;;;3.50;99.90;;;;;;6124683;23;19925;-91
2023/03/09 10:43:30;;;;;;;;;;;3.40;99.90;;;;;;6132617;23;19925;-92
2023/03/09 10:46:23;;;;;;;;;;;3.80;99.90;;;;;;6146321;23;19935;-91
2023/03/09 10:49:10;;;;;;;;;;;3.70;99.90;;;;;;6105056;23;19928;-93
2023/03/09 10:52:16;;;;;;;;;;;3.70;99.90;;;;;;6128848;23;20640;-92
2023/03/09 10:55:03;;;;;;;;;;;3.90;99.90;;;;;;6044776;23;19932;-91
2023/03/09 10:57:36;;;;;;;;;;;3.30;99.90;;;;;;6106578;23;19967;-91
2023/03/09 11:00:13;;;;;;;;;;;3.60;99.90;;;;;;6107783;23;19920;-92
2023/03/09 11:03:11;;;;;;;;;;;;;;;;;;;;;
2023/03/09 11:06:09;;;;;;;;;;;3.70;99.90;;;;;;6153374;23;20353;-92
2023/03/09 11:08:46;;;;;;;;;;;2.60;99.90;;;;;;6114549;23;19924;-91
2023/03/09 11:11:28;;;;;;;;;;;4.30;99.90;;;;;;6129818;23;19931;-91
2023/03/09 11:14:37;;;;;;;;;;;4.00;99.90;;;;;;6144559;23;19975;-92
2023/03/09 11:17:15;;;;;;;;;;;;;;;;;;;;;
2023/03/09 11:20:00;;;;;;;;;;;2.00;99.90;;;;;;6171358;23;19943;-91
2023/03/09 11:26:06;;;;;;;;;;;;;;;;;;;;;
2023/03/09 11:35:02;;;;;;;;;;;4.10;99.90;;;;;;6184395;23;19931;-96
2023/03/09 11:37:46;;;;;;;;;;;2.80;99.90;;;;;;6150356;23;19920;-96
2023/03/09 11:40:19;;;;;;;;;;;6.60;99.90;;;;;;6179339;23;19968;-96
2023/03/09 11:42:50;;;;;;;;;;;4.30;99.90;;;;;;6152717;23;20056;-95
2023/03/09 11:45:19;;;;;;;;;;;1.70;99.90;;;;;;6157056;23;19967;-96
2023/03/09 11:48:02;;;;;;;;;;;;;;;;;;;;;
2023/03/09 11:53:46;;;;;;;;;;;1.90;99.90;;;;;;6138702;23;20361;-94
2023/03/09 11:56:46;;;;;;;;;;;4.50;99.90;;;;;;6136303;23;20002;-94
2023/03/09 11:59:33;;;;;;;;;;;4.20;99.90;;;;;;6158830;23;19924;-91
2023/03/09 12:02:21;;;;;;;;;;;4.20;99.90;;;;;;6155190;23;19943;-94
2023/03/09 12:11:30;;;;;;;;;;;4.20;99.90;;;;;;6138179;23;19986;-89
2023/03/09 12:14:26;;;;;;;;;;;;;;;;;;;;;
2023/03/09 12:20:18;;;;;;;;;;;2.90;99.90;;;;;;6166622;23;19920;-91
2023/03/09 12:23:13;;;;;;;;;;;;;;;;;;;;;
2023/03/09 12:25:58;;;;;;;;;;;7.20;99.90;;;;;;6157420;23;19926;-90
2023/03/09 12:31:34;;;;;;;;;;;6.60;99.90;;;;;;6136305;23;19920;-90
2023/03/09 12:34:20;;;;;;;;;;;4.70;99.90;;;;;;6131587;23;19967;-92
2023/03/09 12:37:15;;;;;;;;;;;;;;;;;;;;;
2023/03/09 12:43:21;;;;;;;;;;;;;;;;;;;;;
2023/03/09 12:46:17;;;;;;;;;;;;;;;;;;;;;
2023/03/09 12:48:55;;;;;;;;;;;6.70;99.90;;;;;;6132349;23;19921;-90
2023/03/09 12:52:02;;;;;;;;;;;;;;;;;;;;;
2023/03/09 12:54:31;;;;;;;;;;;2.70;99.90;;;;;;6177587;23;19924;-89
2023/03/09 12:57:10;;;;;;;;;;;4.70;99.90;;;;;;6155473;23;19962;-89
2023/03/09 12:59:58;;;;;;;;;;;4.60;99.90;;;;;;6181786;23;19959;-90
2023/03/09 13:02:32;;;;;;;;;;;4.30;99.90;;;;;;6153694;23;19928;-88
2023/03/09 13:05:28;;;;;;;;;;;4.60;99.90;;;;;;6180025;23;20003;-89
2023/03/09 13:07:58;;;;;;;;;;;4.10;99.90;;;;;;6154620;23;19927;-87
2023/03/09 13:10:32;;;;;;;;;;;4.10;99.90;;;;;;6178495;23;20534;-89
2023/03/09 13:13:20;;;;;;;;;;;6.40;99.90;;;;;;6156737;23;19927;-88
2023/03/09 13:15:47;;;;;;;;;;;4.10;99.90;;;;;;6156561;23;19967;-88
2023/03/09 13:18:22;;;;;;;;;;;5.50;99.90;;;;;;6152349;23;19920;-89
2023/03/09 13:20:53;;;;;;;;;;;4.50;99.90;;;;;;6179506;23;19924;-90
2023/03/09 13:23:22;;;;;;;;;;;4.60;99.90;;;;;;6155987;23;19920;-90
2023/03/09 13:25:48;;;;;;;;;;;4.00;99.90;;;;;;6131922;23;20339;-88
2023/03/09 13:28:26;;;;;;;;;;;4.30;99.90;;;;;;6156006;23;19931;-87
2023/03/09 13:30:57;;;;;;;;;;;3.90;99.90;;;;;;6157346;23;20012;-89
2023/03/09 13:33:38;;;;;;;;;;;4.20;99.90;;;;;;6158527;23;19920;-88
2023/03/09 13:36:30;;;;;;;;;;;3.70;99.90;;;;;;6158036;23;19924;-89
2023/03/09 13:42:05;;;;;;;;;;;3.90;99.90;;;;;;6159270;23;19927;-88
2023/03/09 13:44:54;;;;;;;;;;;3.80;99.90;;;;;;6158315;23;19920;-88
2023/03/09 13:47:26;;;;;;;;;;;5.70;99.90;;;;;;6182428;23;20347;-87
2023/03/09 13:49:53;;;;;;;;;;;4.00;99.90;;;;;;6157252;23;20004;-90
2023/03/09 13:52:32;;;;;;;;;;;;;;;;;;;;;
2023/03/09 13:55:04;;;;;;;;;;;2.90;99.90;;;;;;6182496;23;19931;-87
2023/03/09 13:57:44;;;;;;;;;;;;;;;;;;;;;
2023/03/09 14:00:28;;;;;;;;;;;;;;;;;;;;;
2023/03/09 14:03:02;;;;;;;;;;;5.80;99.90;;;;;;6182616;23;19920;-89
2023/03/09 14:05:36;;;;;;;;;;;1.90;99.90;;;;;;6134536;23;19970;-90
2023/03/09 14:08:32;;;;;;;;;;;4.10;99.90;;;;;;6182364;23;19935;-89
2023/03/09 14:11:04;;;;;;;;;;;3.60;99.90;;;;;;6158158;23;19991;-90
2023/03/09 14:13:32;;;;;;;;;;;3.80;99.90;;;;;;6158362;23;20318;-89
2023/03/09 14:16:06;;;;;;;;;;;3.60;99.90;;;;;;6157077;23;20015;-88
2023/03/09 14:19:19;;;;;;;;;;;2.70;99.90;;;;;;6158760;23;19920;-88
2023/03/09 14:21:41;;;;;;;;;;;3.90;99.90;;;;;;6177480;23;19991;-88
2023/03/09 14:24:23;;;;;;;;;;;4.30;99.90;;;;;;6130398;23;20055;-88
2023/03/09 14:27:09;;;;;;;;;;;4.10;99.90;;;;;;6157914;23;19952;-91
2023/03/09 14:29:53;;;;;;;;;;;4.00;99.90;;;;;;6155716;23;19924;-89
2023/03/09 14:32:40;;;;;;;;;;;4.30;99.90;;;;;;6132055;23;19921;-91
2023/03/09 14:35:37;;;;;;;;;;;3.60;99.90;;;;;;6158294;23;19924;-91
2023/03/09 14:38:18;;;;;;;;;;;4.00;99.90;;;;;;6139954;23;19977;-88
2023/03/09 14:40:50;;;;;;;;;;;3.70;99.90;;;;;;6155876;23;19924;-88
2023/03/09 14:43:45;;;;;;;;;;;4.20;99.90;;;;;;6182049;23;20380;-90
2023/03/09 14:46:20;;;;;;;;;;;2.20;99.90;;;;;;6155689;23;19924;-90
2023/03/09 14:48:51;;;;;;;;;;;6.00;99.90;;;;;;6156754;23;19931;-89
2023/03/09 14:51:21;;;;;;;;;;;3.70;99.90;;;;;;6186246;23;20001;-90
2023/03/09 14:54:00;;;;;;;;;;;4.20;99.90;;;;;;6187115;23;19924;-89
2023/03/09 14:56:35;;;;;;;;;;;3.80;99.90;;;;;;6162416;23;19928;-88
2023/03/09 14:59:11;;;;;;;;;;;3.60;99.90;;;;;;6187439;23;19920;-89
2023/03/09 15:01:38;;;;;;;;;;;1.80;99.90;;;;;;6187291;23;19928;-88
2023/03/09 15:04:11;;;;;;;;;;;3.30;99.90;;;;;;6162005;23;19924;-87
2023/03/09 15:06:37;;;;;;;;;;;3.00;99.90;;;;;;6160786;23;19931;-88
2023/03/09 15:09:31;;;;;;;;;;;3.90;99.90;;;;;;6184209;23;19924;-88
2023/03/09 15:12:08;;;;;;;;;;;3.40;99.90;;;;;;6160403;23;19920;-88
2023/03/09 15:14:47;;;;;;;;;;;4.00;99.90;;;;;;6143356;23;19955;-89
2023/03/09 15:17:18;;;;;;;;;;;3.40;99.90;;;;;;6185698;23;19959;-89
2023/03/09 15:20:14;;;;;;;;;;;4.10;99.90;;;;;;6185639;23;19924;-92
2023/03/09 15:22:45;;;;;;;;;;;3.70;99.90;;;;;;6154727;23;19924;-88
2023/03/09 15:25:14;;;;;;;;;;;3.50;99.90;;;;;;6161453;23;19924;-88
2023/03/09 15:28:02;;;;;;;;;;;3.00;99.90;;;;;;6160606;23;19955;-90
2023/03/09 15:30:34;;;;;;;;;;;2.50;99.90;;;;;;6161088;23;19970;-89
2023/03/09 15:33:02;;;;;;;;;;;3.50;99.90;;;;;;6131722;23;20002;-87
2023/03/09 15:35:44;;;;;;;;;;;;;;;;;;;;;
2023/03/09 15:38:31;;;;;;;;;;;1.60;99.90;;;;;;6211028;22;19934;-90
2023/03/09 15:46:50;;;;;;;;;;;2.80;99.90;;;;;;6203153;23;19917;-91
2023/03/09 15:49:36;;;;;;;;;;;2.60;99.90;;;;;;6212720;22;19935;-90
2023/03/09 15:52:02;;;;;;;;;;;3.00;99.90;;;;;;6176178;23;19944;-88
2023/03/09 15:54:30;;;;;;;;;;;0.20;99.90;;;;;;6186951;23;19967;-88
2023/03/09 15:57:04;;;;;;;;;;;1.60;99.90;;;;;;6213294;23;19920;-89
2023/03/09 15:59:39;;;;;;;;;;;5.20;99.90;;;;;;6176726;23;19920;-88
2023/03/09 16:02:30;;;;;;;;;;;3.00;99.90;;;;;;6176664;23;19962;-90
2023/03/09 16:04:55;;;;;;;;;;;2.60;99.90;;;;;;6189812;23;19972;-91
2023/03/09 16:07:23;;;;;;;;;;;1.30;99.90;;;;;;6162555;23;19919;-88
2023/03/09 16:10:12;;;;;;;;;;;3.30;99.90;;;;;;6163903;23;19920;-87
2023/03/09 16:12:59;;;;;;;;;;;3.40;99.90;;;;;;6216014;23;19926;-88
2023/03/09 16:15:25;;;;;;;;;;;2.60;99.90;;;;;;6166992;23;19927;-88
2023/03/09 16:18:07;;;;;;;;;;;2.50;99.90;;;;;;6167577;23;19920;-89
2023/03/09 16:20:53;;;;;;;;;;;1.00;99.90;;;;;;6168624;23;19970;-89
2023/03/09 16:23:25;;;;;;;;;;;2.90;99.90;;;;;;6160314;23;19943;-89
2023/03/09 16:26:28;;;;;;;;;;;1.50;99.90;;;;;;6163073;23;20388;-89
2023/03/09 16:29:05;;;;;;;;;;;4.60;99.90;;;;;;6131563;23;19928;-89
2023/03/09 16:31:31;;;;;;;;;;;3.80;99.90;;;;;;6185170;23;19924;-90
2023/03/09 16:34:28;;;;;;;;;;;2.90;99.90;;;;;;6162786;23;19926;-92
2023/03/09 16:37:04;;;;;;;;;;;2.20;99.90;;;;;;6161184;23;19927;-89
2023/03/09 16:39:33;;;;;;;;;;;4.30;99.90;;;;;;6163233;23;19939;-88
2023/03/09 16:42:06;;;;;;;;;;;4.00;99.90;;;;;;6186736;23;20018;-89
2023/03/09 16:44:55;;;;;;;;;;;;;;;;;;;;;
2023/03/09 16:47:44;;;;;;;;;;;2.70;99.90;;;;;;6188292;23;20289;-91
2023/03/09 16:50:35;;;;;;;;;;;;;;;;;;;;;
2023/03/09 16:53:31;;;;;;;;;;;;;;;;;;;;;
2023/03/09 16:56:28;;;;;;;;;;;1.60;99.90;;;;;;6184498;23;19936;-91
2023/03/09 16:59:11;;;;;;;;;;;2.60;99.90;;;;;;6159300;23;19925;-93
2023/03/09 17:02:07;;;;;;;;;;;;;;;;;;;;;
2023/03/09 17:07:26;;;;;;;;;;;2.80;99.90;;;;;;6172664;23;19927;-90
2023/03/09 17:10:26;;;;;;;;;;;2.30;99.90;;;;;;6184292;23;19927;-91
2023/03/09 17:13:43;;;;;;;;;;;-0.20;99.90;;;;;;6173587;23;19920;-90
2023/03/09 17:16:44;;;;;;;;;;;;;;;;;;;;;
2023/03/09 17:22:24;;;;;;;;;;;1.50;99.90;;;;;;6171290;23;19920;-89
2023/03/09 17:27:49;;;;;;;;;;;1.10;99.90;;;;;;6182522;23;19963;-89
2023/03/09 17:30:29;;;;;;;;;;;;;;;;;;;;;
2023/03/09 17:36:01;;;;;;;;;;;3.80;99.90;;;;;;6163887;23;20611;-90
2023/03/09 17:38:57;;;;;;;;;;;;;;;;;;;;;
2023/03/09 17:41:59;;;;;;;;;;;1.90;99.90;;;;;;6187206;23;19929;-90
2023/03/09 17:44:24;;;;;;;;;;;2.40;99.90;;;;;;6155300;23;19925;-88
2023/03/09 17:46:50;;;;;;;;;;;3.00;99.90;;;;;;6207684;23;19927;-88
2023/03/09 17:49:16;;;;;;;;;;;4.20;99.90;;;;;;6182748;23;20004;-87
2023/03/09 17:51:41;;;;;;;;;;;4.40;99.90;;;;;;6156275;23;20385;-90
2023/03/09 17:54:16;;;;;;;;;;;-0.10;99.90;;;;;;6160270;23;20327;-88
2023/03/09 17:56:47;;;;;;;;;;;3.00;99.90;;;;;;6181789;23;20034;-88
2023/03/09 17:59:13;;;;;;;;;;;5.30;99.90;;;;;;6171760;23;20553;-90
2023/03/09 18:02:04;;;;;;;;;;;2.50;99.90;;;;;;6152965;23;19998;-90
2023/03/09 18:04:40;;;;;;;;;;;1.70;99.90;;;;;;6131245;23;19936;-90
2023/03/09 18:07:18;;;;;;;;;;;;;;;;;;;;;
2023/03/09 18:09:58;;;;;;;;;;;2.50;99.90;;;;;;6181214;23;19944;-90
2023/03/09 18:12:26;;;;;;;;;;;4.00;99.90;;;;;;6180929;23;19927;-90
2023/03/09 18:15:00;;;;;;;;;;;0.10;99.90;;;;;;6154353;23;19928;-90
2023/03/09 18:20:51;;;;;;;;;;;-0.40;99.90;;;;;;6153435;23;19920;-90
2023/03/09 18:23:40;;;;;;;;;;;0.40;99.90;;;;;;6158581;23;20430;-90
2023/03/09 18:26:30;;;;;;;;;;;-1.30;99.90;;;;;;6158506;23;19927;-89
2023/03/09 18:29:06;;;;;;;;;;;3.80;99.90;;;;;;6166050;23;19927;-91
2023/03/09 18:31:38;;;;;;;;;;;4.30;99.90;;;;;;6159848;23;19920;-91
2023/03/09 18:34:06;;;;;;;;;;;2.20;99.90;;;;;;6158734;23;20015;-91
2023/03/09 18:36:55;;;;;;;;;;;-1.40;99.90;;;;;;6155926;23;20239;-91
2023/03/09 18:39:34;;;;;;;;;;;1.60;99.90;;;;;;6155803;23;20343;-92
2023/03/09 18:42:29;;;;;;;;;;;1.30;99.90;;;;;;6154017;23;19952;-90
2023/03/09 18:44:57;;;;;;;;;;;1.70;99.90;;;;;;6157745;23;20349;-91
2023/03/09 18:47:30;;;;;;;;;;;1.70;99.90;;;;;;6157681;23;19955;-90
2023/03/09 18:50:01;;;;;;;;;;;2.40;99.90;;;;;;6158683;23;20002;-91
2023/03/09 18:52:39;;;;;;;;;;;4.60;99.90;;;;;;6132278;23;19924;-93
2023/03/09 18:55:08;;;;;;;;;;;1.00;99.90;;;;;;6157383;23;19924;-90
2023/03/09 18:57:44;;;;;;;;;;;1.50;99.90;;;;;;6182016;23;19928;-90
2023/03/09 19:00:23;;;;;;;;;;;;;;;;;;;;;
2023/03/09 19:02:54;;;;;;;;;;;1.20;99.90;;;;;;6181292;23;19930;-89
2023/03/09 19:05:40;;;;;;;;;;;1.70;99.90;;;;;;6131505;23;19927;-89
2023/03/09 19:08:12;;;;;;;;;;;1.10;99.90;;;;;;6155912;23;20362;-88
2023/03/09 19:13:35;;;;;;;;;;;1.70;99.90;;;;;;6166186;23;19947;-89
2023/03/09 19:16:07;;;;;;;;;;;1.70;99.90;;;;;;6134746;23;20014;-89
2023/03/09 19:18:39;;;;;;;;;;;2.50;99.90;;;;;;6184431;23;20466;-88
2023/03/09 19:21:11;;;;;;;;;;;1.00;99.90;;;;;;6156711;23;19931;-89
2023/03/09 19:23:39;;;;;;;;;;;4.10;99.90;;;;;;6180630;23;19924;-88
2023/03/09 19:26:18;;;;;;;;;;;;;;;;;;;;;
2023/03/09 19:28:45;;;;;;;;;;;1.20;99.90;;;;;;6181351;23;19959;-88
2023/03/09 19:31:19;;;;;;;;;;;1.10;99.90;;;;;;6181001;23;19928;-89
2023/03/09 19:33:53;;;;;;;;;;;1.50;99.90;;;;;;6157371;23;19964;-89
2023/03/09 19:36:23;;;;;;;;;;;2.20;99.90;;;;;;6154938;23;19931;-89
2023/03/09 19:38:53;;;;;;;;;;;3.70;99.90;;;;;;6179186;23;20497;-87
2023/03/09 19:41:23;;;;;;;;;;;1.70;99.90;;;;;;6156066;23;19972;-88
2023/03/09 19:43:59;;;;;;;;;;;2.10;99.90;;;;;;6188604;23;19935;-88
2023/03/09 19:46:29;;;;;;;;;;;5.00;99.90;;;;;;6181696;23;19920;-89
2023/03/09 19:48:55;;;;;;;;;;;1.60;99.90;;;;;;6205152;23;19920;-88
2023/03/09 19:51:26;;;;;;;;;;;4.40;99.90;;;;;;6206614;23;19909;-90
2023/03/09 19:54:02;;;;;;;;;;;1.40;99.90;;;;;;6184207;23;20068;-87
2023/03/09 19:56:39;;;;;;;;;;;3.80;99.90;;;;;;6208679;23;19927;-87
2023/03/09 19:59:11;;;;;;;;;;;5.00;99.90;;;;;;6210150;23;19908;-87
2023/03/09 20:01:48;;;;;;;;;;;4.40;99.90;;;;;;6210818;23;19932;-88
2023/03/09 20:04:17;;;;;;;;;;;1.50;99.90;;;;;;6211247;23;19924;-88
2023/03/09 20:06:47;;;;;;;;;;;1.80;99.90;;;;;;6165326;23;19991;-87
2023/03/09 20:09:23;;;;;;;;;;;2.90;99.90;;;;;;6183945;23;19920;-91
2023/03/09 20:11:51;;;;;;;;;;;-0.70;99.90;;;;;;6183308;23;19951;-88
2023/03/09 20:14:24;;;;;;;;;;;-0.60;99.90;;;;;;6133139;23;19987;-88
2023/03/09 20:16:50;;;;;;;;;;;0.00;99.90;;;;;;6157234;23;20295;-87
2023/03/09 20:19:16;;;;;;;;;;;1.10;99.90;;;;;;6181105;23;19956;-89
2023/03/09 20:21:45;;;;;;;;;;;4.20;99.90;;;;;;6155646;23;19975;-88
2023/03/09 20:24:14;;;;;;;;;;;3.90;99.90;;;;;;6156811;23;20302;-87
2023/03/09 20:26:46;;;;;;;;;;;1.60;99.90;;;;;;6156983;23;19924;-88
2023/03/09 20:29:25;;;;;;;;;;;1.10;99.90;;;;;;6182128;23;20303;-87
2023/03/09 20:32:07;;;;;;;;;;;3.20;99.90;;;;;;6157024;23;20228;-87
2023/03/09 20:34:42;;;;;;;;;;;2.10;99.90;;;;;;6182348;23;19931;-89
2023/03/09 20:37:23;;;;;;;;;;;3.90;99.90;;;;;;6181483;23;19920;-88
2023/03/09 20:39:56;;;;;;;;;;;1.80;99.90;;;;;;6182317;23;19924;-87